Time;durP1;ratioP1;P1;durP2;ratioP2;P2;SDS_P1;SDS_P2;PMS_P1;PMS_P2;Temp;Humidity;BMP_temperature;BMP_pressure;BME280_temperature;BME280_humidity;BME280_pressure;Samples;Min_cycle;Max_cycle;Signal;HPM_P1;HPM_P2
2022/08/26 00:00:45;;;;;;;5.28;3.00;;;;;;;23.22;47.98;99139.00;1787076;80;21433;-48
2022/08/26 00:03:13;;;;;;;14.18;3.00;;;;;;;23.19;48.12;99142.36;1787194;80;21026;-54
2022/08/26 00:05:41;;;;;;;9.30;3.17;;;;;;;23.17;48.30;99140.32;1787117;80;21015;-50
2022/08/26 00:08:08;;;;;;;12.13;2.87;;;;;;;23.16;48.48;99137.83;1787117;80;21515;-54
2022/08/26 00:10:34;;;;;;;9.25;3.70;;;;;;;23.13;48.08;99130.95;1787098;80;20967;-52
2022/08/26 00:13:00;;;;;;;12.70;3.15;;;;;;;23.11;48.22;99132.14;1787125;80;20968;-48
2022/08/26 00:15:26;;;;;;;7.30;2.85;;;;;;;23.09;48.18;99130.13;1787037;80;21010;-56
2022/08/26 00:17:52;;;;;;;9.50;2.98;;;;;;;23.05;48.82;99125.61;1787095;80;20967;-46
2022/08/26 00:20:24;;;;;;;10.53;3.98;;;;;;;23.02;49.16;99127.76;1787375;80;21039;-51
2022/08/26 00:22:49;;;;;;;9.38;3.17;;;;;;;23.00;49.78;99130.60;1787081;80;20987;-46
2022/08/26 00:25:16;;;;;;;10.32;3.10;;;;;;;22.96;49.85;99126.59;1787157;80;21471;-53
2022/08/26 00:27:42;;;;;;;9.95;2.62;;;;;;;22.92;49.45;99124.75;1787363;80;21472;-48
2022/08/26 00:30:16;;;;;;;11.60;2.87;;;;;;;22.87;49.42;99124.41;1787248;80;20991;-49
2022/08/26 00:32:42;;;;;;;6.35;2.83;;;;;;;22.83;49.53;99121.73;1785516;80;21032;-54
2022/08/26 00:35:10;;;;;;;6.67;3.05;;;;;;;22.80;49.75;99122.06;1787146;80;21473;-55
2022/08/26 00:37:37;;;;;;;11.78;3.17;;;;;;;22.79;49.88;99120.38;1787042;80;21492;-54
2022/08/26 00:40:06;;;;;;;17.95;3.02;;;;;;;22.76;49.76;99122.07;1787238;80;20971;-55
2022/08/26 00:42:32;;;;;;;8.85;3.52;;;;;;;22.74;50.15;99118.69;1787068;80;20994;-56
2022/08/26 00:44:57;;;;;;;14.58;3.65;;;;;;;22.70;50.31;99118.70;1787072;80;20982;-46
2022/08/26 00:47:34;;;;;;;6.47;3.08;;;;;;;22.64;50.14;99121.55;1786702;80;21333;-54
2022/08/26 00:50:05;;;;;;;12.95;3.58;;;;;;;22.62;50.14;99113.67;1778934;81;21000;-46
2022/08/26 00:52:31;;;;;;;15.23;4.45;;;;;;;22.59;50.83;99118.05;1778889;80;20995;-52
2022/08/26 00:55:14;;;;;;;8.83;3.45;;;;;;;22.56;50.50;99117.03;1778717;81;20987;-49
2022/08/26 00:57:41;;;;;;;14.65;3.37;;;;;;;22.55;50.57;99126.56;1778725;81;21496;-46
2022/08/26 01:00:13;;;;;;;11.88;3.90;;;;;;;22.53;50.48;99116.52;1778979;80;21441;-52
2022/08/26 01:02:39;;;;;;;6.95;3.15;;;;;;;22.48;50.90;99121.02;1778759;81;21449;-52
2022/08/26 01:05:10;;;;;;;7.03;2.92;;;;;;;22.44;50.68;99119.69;1757311;81;21128;-50
2022/08/26 01:07:38;;;;;;;9.08;3.27;;;;;;;22.41;50.68;99121.34;1778740;80;20975;-53
2022/08/26 01:10:09;;;;;;;7.78;3.15;;;;;;;22.40;50.61;99121.86;1778821;81;21046;-49
2022/08/26 01:12:44;;;;;;;12.20;3.12;;;;;;;22.39;50.69;99124.70;1778814;80;21023;-52
2022/08/26 01:15:18;;;;;;;10.48;3.27;;;;;;;22.40;50.75;99123.70;1778794;81;21019;-49
2022/08/26 01:17:44;;;;;;;10.72;3.22;;;;;;;22.39;50.50;99123.36;1778819;81;20964;-50
2022/08/26 01:20:30;;;;;;;14.50;4.85;;;;;;;22.39;50.82;99123.36;1778754;81;21073;-46
2022/08/26 01:23:01;;;;;;;18.25;3.27;;;;;;;22.38;50.88;99125.72;1778855;81;20979;-53
2022/08/26 01:25:30;;;;;;;8.13;2.85;;;;;;;22.35;50.70;99126.03;1778856;81;21027;-53
2022/08/26 01:28:01;;;;;;;12.00;2.80;;;;;;;22.34;50.61;99125.69;1778821;80;20995;-54
2022/08/26 01:30:28;;;;;;;12.00;3.15;;;;;;;22.31;50.63;99123.36;1756813;81;20964;-58
2022/08/26 01:32:55;;;;;;;;;;;;;;;22.30;50.57;99125.69;1781382;80;21023;-45
2022/08/26 01:35:21;;;;;;;8.53;2.50;;;;;;;22.27;51.09;99123.36;1778707;81;20105;-49
2022/08/26 01:37:51;;;;;;;8.23;3.02;;;;;;;22.23;50.77;99120.97;1778295;81;21046;-50
2022/08/26 01:40:23;;;;;;;9.50;3.15;;;;;;;22.20;50.86;99121.28;1778506;81;21485;-48
2022/08/26 01:42:49;;;;;;;15.38;3.45;;;;;;;22.20;50.80;99123.96;1778653;81;21520;-49
2022/08/26 01:45:25;;;;;;;8.43;3.08;;;;;;;22.20;50.66;99126.64;1779087;80;20980;-55
2022/08/26 01:47:55;;;;;;;5.53;2.80;;;;;;;22.18;51.04;99127.30;1777873;80;21057;-59
2022/08/26 01:50:27;;;;;;;15.78;3.30;;;;;;;22.18;50.92;99129.16;1777656;81;21552;-55
2022/08/26 01:52:55;;;;;;;16.10;3.45;;;;;;;22.17;50.90;99123.45;1778843;81;21537;-50
2022/08/26 01:55:23;;;;;;;13.53;3.40;;;;;;;22.13;50.99;99118.92;1778829;80;21430;-56
2022/08/26 01:57:53;;;;;;;13.35;3.92;;;;;;;22.11;51.10;99117.42;1778833;81;21014;-50
2022/08/26 02:00:19;;;;;;;12.58;3.50;;;;;;;22.08;51.24;99117.23;1778771;81;21031;-49
2022/08/26 02:02:49;;;;;;;15.70;3.17;;;;;;;22.05;51.49;99120.25;1778771;81;21128;-53
2022/08/26 02:05:20;;;;;;;15.08;3.12;;;;;;;22.03;51.66;99116.91;1756812;81;20983;-57
2022/08/26 02:07:49;;;;;;;11.45;3.20;;;;;;;22.01;51.44;99117.54;1778699;81;21034;-51
2022/08/26 02:10:15;;;;;;;6.10;3.17;;;;;;;21.99;51.62;99117.73;1778276;81;21022;-51
2022/08/26 02:12:41;;;;;;;10.28;3.12;;;;;;;21.96;51.74;99113.20;1777593;80;21007;-45
2022/08/26 02:15:10;;;;;;;12.80;3.30;;;;;;;21.96;52.01;99117.21;1778094;81;21011;-44
2022/08/26 02:17:42;;;;;;;12.37;3.08;;;;;;;21.94;51.84;99112.02;1778721;81;21039;-55
2022/08/26 02:20:13;;;;;;;8.83;3.77;;;;;;;21.91;52.10;99111.50;1778223;80;20987;-47
2022/08/26 02:22:40;;;;;;;8.70;3.17;;;;;;;21.88;51.70;99118.00;1782538;80;21054;-51
2022/08/26 02:25:32;;;;;;;10.53;3.37;;;;;;;21.89;52.27;99121.53;1778965;81;20987;-46
2022/08/26 02:27:59;;;;;;;13.68;3.10;;;;;;;21.86;52.01;99117.33;1778654;80;20971;-46
2022/08/26 02:30:30;;;;;;;9.43;3.63;;;;;;;21.83;52.34;99117.67;1779100;80;21031;-51
2022/08/26 02:33:02;;;;;;;7.22;3.20;;;;;;;21.78;52.38;99110.63;1782540;80;20984;-51
2022/08/26 02:35:29;;;;;;;9.55;3.17;;;;;;;21.75;52.21;99109.08;1778850;80;20991;-48
2022/08/26 02:37:56;;;;;;;;;;;;;;;21.74;53.03;99114.11;1781397;80;21003;-50
2022/08/26 02:42:57;;;;;;;12.10;3.33;;;;;;;21.68;52.87;99112.06;1696598;78;21222;-56
2022/08/26 02:45:26;;;;;;;10.00;3.15;;;;;;;21.68;52.32;99110.72;1687107;85;21699;-50
2022/08/26 02:47:52;;;;;;;9.48;3.12;;;;;;;21.66;52.34;99110.88;1686961;85;21023;-52
2022/08/26 02:50:19;;;;;;;12.95;3.58;;;;;;;21.66;52.38;99115.41;1687231;84;21022;-46
2022/08/26 02:52:45;;;;;;;16.42;4.22;;;;;;;21.63;52.54;99111.73;1687283;85;20983;-48
2022/08/26 02:55:11;;;;;;;15.72;4.20;;;;;;;21.60;52.49;99113.38;1687255;84;21054;-50
2022/08/26 02:57:37;;;;;;;10.63;3.12;;;;;;;21.60;52.46;99116.05;1687280;85;21500;-47
2022/08/26 03:00:07;;;;;;;12.07;3.60;;;;;;;21.57;52.50;99110.51;1687215;85;21482;-53
2022/08/26 03:02:33;;;;;;;15.50;4.15;;;;;;;21.56;52.49;99109.35;1687270;85;20995;-49
2022/08/26 03:04:59;;;;;;;13.00;3.27;;;;;;;21.54;52.57;99107.31;1687154;85;21011;-51
2022/08/26 03:07:25;;;;;;;11.03;4.95;;;;;;;21.54;52.32;99104.63;1687162;83;21027;-46
2022/08/26 03:09:51;;;;;;;8.65;3.60;;;;;;;21.51;52.27;99101.80;1687334;85;21019;-46
2022/08/26 03:12:19;;;;;;;12.75;3.90;;;;;;;21.49;52.44;99098.44;1687290;85;21046;-47
2022/08/26 03:14:46;;;;;;;4.78;3.08;;;;;;;21.49;52.45;99101.63;1687303;83;21479;-52
2022/08/26 03:17:12;;;;;;;15.38;3.65;;;;;;;21.45;53.13;99101.94;1687182;85;21018;-46
2022/08/26 03:19:38;;;;;;;8.85;3.20;;;;;;;21.39;53.26;99099.88;1687163;83;21051;-44
2022/08/26 03:22:04;;;;;;;14.03;3.60;;;;;;;21.34;53.20;99095.50;1687149;83;21054;-45
2022/08/26 03:24:30;;;;;;;15.70;3.67;;;;;;;21.31;53.33;99097.14;1687154;85;20975;-47
2022/08/26 03:26:56;;;;;;;6.42;3.50;;;;;;;21.29;53.45;99093.80;1687265;85;21050;-46
2022/08/26 03:32:08;;;;;;;16.42;4.08;;;;;;;21.27;53.60;99101.14;1687243;85;20999;-50
2022/08/26 03:34:34;;;;;;;11.50;3.52;;;;;;;21.25;53.64;99099.13;1687348;85;20992;-46
2022/08/26 03:37:00;;;;;;;11.05;3.62;;;;;;;21.23;54.14;99103.28;1687166;84;21011;-48
2022/08/26 03:39:27;;;;;;;10.90;4.20;;;;;;;21.24;54.29;99104.12;1687149;84;20999;-51
2022/08/26 03:41:54;;;;;;;13.22;3.87;;;;;;;21.22;54.43;99096.25;1687189;84;21035;-49
2022/08/26 03:44:20;;;;;;;11.67;3.67;;;;;;;21.20;54.54;99105.44;1687370;85;20991;-53
2022/08/26 03:46:45;;;;;;;16.17;3.83;;;;;;;21.18;54.40;99102.09;1687202;85;21015;-49
2022/08/26 03:49:12;;;;;;;10.98;3.95;;;;;;;21.15;54.51;99101.88;1687481;85;21183;-47
2022/08/26 03:51:37;;;;;;;13.00;3.87;;;;;;;21.13;54.60;99099.04;1687285;84;21010;-52
2022/08/26 03:54:04;;;;;;;14.33;4.20;;;;;;;21.09;54.84;99092.66;1687352;85;21563;-46
2022/08/26 03:56:32;;;;;;;18.98;4.17;;;;;;;21.08;55.42;99097.69;1687424;85;21058;-44
2022/08/26 03:58:59;;;;;;;9.35;3.72;;;;;;;21.08;54.92;99096.34;1687278;85;21533;-52
2022/08/26 04:01:26;;;;;;;16.62;3.80;;;;;;;21.07;54.81;99097.84;1687227;85;21018;-52
2022/08/26 04:03:58;;;;;;;14.40;3.87;;;;;;;21.06;54.91;99092.97;1687339;84;20980;-51
2022/08/26 04:06:42;;;;;;;17.80;4.08;;;;;;;21.03;54.89;99098.64;1687332;85;21076;-50
2022/08/26 04:09:12;;;;;;;11.88;3.42;;;;;;;21.03;54.75;99099.16;1687142;85;21469;-51
2022/08/26 04:11:40;;;;;;;12.43;4.00;;;;;;;21.03;54.70;99097.81;1687262;85;21007;-57
2022/08/26 04:14:13;;;;;;;18.35;3.95;;;;;;;21.00;54.98;99098.95;1687397;85;21000;-50
2022/08/26 04:16:41;;;;;;;13.62;3.50;;;;;;;20.99;55.13;99092.42;1686211;85;21557;-43
2022/08/26 04:19:08;;;;;;;13.70;4.00;;;;;;;20.97;55.13;99089.90;1687255;84;21055;-46
2022/08/26 04:21:36;;;;;;;11.85;4.08;;;;;;;20.97;55.22;99096.58;1687279;83;21472;-54
2022/08/26 04:24:03;;;;;;;13.58;3.70;;;;;;;20.97;55.93;99093.91;1687173;83;21031;-52
2022/08/26 04:26:35;;;;;;;13.83;3.60;;;;;;;20.99;56.47;99103.97;1687330;85;21019;-49
2022/08/26 04:29:00;;;;;;;9.33;4.08;;;;;;;20.97;56.11;99101.92;1686856;85;21508;-54
2022/08/26 04:31:26;;;;;;;10.18;3.85;;;;;;;20.96;55.99;99100.27;1687555;85;20991;-49
2022/08/26 04:33:51;;;;;;;12.53;4.15;;;;;;;20.96;55.99;99100.77;1686589;85;21055;-58
2022/08/26 04:36:17;;;;;;;11.50;3.55;;;;;;;20.95;55.87;99098.58;1687289;83;21046;-50
2022/08/26 04:38:44;;;;;;;15.83;3.90;;;;;;;20.96;56.97;99096.77;1687263;83;21026;-57
2022/08/26 04:41:11;;;;;;;16.05;4.15;;;;;;;20.94;56.23;99102.27;1687496;84;21047;-56
2022/08/26 04:43:37;;;;;;;9.73;4.08;;;;;;;20.94;56.46;99101.40;1689160;83;21063;-48
2022/08/26 04:46:05;;;;;;;15.55;3.98;;;;;;;20.94;56.65;99098.25;1689466;83;21019;-46
2022/08/26 04:48:32;;;;;;;12.60;3.67;;;;;;;20.94;56.42;99096.91;1689494;85;21098;-47
2022/08/26 04:51:01;;;;;;;13.13;4.53;;;;;;;20.94;56.21;99098.73;1689591;83;20991;-49
2022/08/26 04:53:28;;;;;;;13.93;3.70;;;;;;;20.95;56.66;99095.90;1689424;85;21512;-51
2022/08/26 04:55:54;;;;;;;14.80;4.00;;;;;;;20.96;56.62;99101.60;1689769;83;21019;-55
2022/08/26 04:58:23;;;;;;;15.50;4.73;;;;;;;20.98;56.41;99094.27;1689686;83;21051;-45
2022/08/26 05:00:53;;;;;;;13.28;3.95;;;;;;;20.99;56.47;99097.29;1689456;85;21050;-57
2022/08/26 05:03:19;;;;;;;9.55;3.52;;;;;;;21.01;56.75;99093.95;1689444;83;21354;-55
2022/08/26 05:05:48;;;;;;;14.55;3.95;;;;;;;21.03;56.46;99097.31;1689452;84;21051;-47
2022/08/26 05:08:16;;;;;;;10.43;3.60;;;;;;;21.04;56.71;99096.80;1681976;85;21055;-49
2022/08/26 05:10:47;;;;;;;14.98;3.87;;;;;;;21.05;56.54;99098.50;1688902;85;21003;-46
2022/08/26 05:13:15;;;;;;;10.05;4.00;;;;;;;21.06;56.53;99102.32;1689568;85;21449;-54
2022/08/26 05:15:42;;;;;;;13.00;3.37;;;;;;;21.06;56.63;99094.30;1689501;85;21015;-49
2022/08/26 05:18:07;;;;;;;9.33;4.15;;;;;;;21.08;56.57;99098.16;1689573;83;21540;-51
2022/08/26 05:20:41;;;;;;;11.48;3.95;;;;;;;21.09;56.56;99103.36;1689399;83;21054;-58
2022/08/26 05:23:07;;;;;;;22.42;4.85;;;;;;;21.12;56.57;99106.70;1689157;83;21047;-40
2022/08/26 05:25:39;;;;;;;14.05;3.80;;;;;;;21.15;56.65;99099.21;1689656;84;21026;-40
2022/08/26 05:28:05;;;;;;;18.87;4.87;;;;;;;21.16;56.65;99107.59;1688079;85;20987;-48
2022/08/26 05:30:31;;;;;;;11.80;4.10;;;;;;;21.19;56.76;99109.09;1689797;85;21587;-48
2022/08/26 05:32:57;;;;;;;7.58;4.03;;;;;;;21.22;56.58;99108.79;1689454;85;21058;-55
2022/08/26 05:35:28;;;;;;;10.43;4.03;;;;;;;21.24;56.76;99107.63;1689506;85;21471;-51
2022/08/26 05:37:54;;;;;;;14.60;4.10;;;;;;;21.26;56.67;99113.65;1689449;85;21055;-53
2022/08/26 05:40:19;;;;;;;16.30;4.83;;;;;;;21.29;56.72;99113.84;1689418;84;21030;-57
2022/08/26 05:42:46;;;;;;;17.40;5.28;;;;;;;21.31;56.63;99109.17;1689307;84;21051;-45
2022/08/26 05:45:12;;;;;;;12.63;4.42;;;;;;;21.36;56.71;99114.89;1689646;85;21048;-43
2022/08/26 05:47:38;;;;;;;14.90;4.47;;;;;;;21.39;56.58;99107.91;1689376;85;21014;-52
2022/08/26 05:50:05;;;;;;;15.15;4.85;;;;;;;21.42;56.96;99109.41;1689476;85;21456;-54
2022/08/26 05:52:32;;;;;;;15.88;4.28;;;;;;;21.44;56.94;99108.75;1689469;85;21568;-54
2022/08/26 05:54:58;;;;;;;13.68;4.08;;;;;;;21.45;56.15;99113.97;1689575;85;21054;-48
2022/08/26 05:57:24;;;;;;;20.57;4.65;;;;;;;21.51;56.33;99113.00;1688020;83;21032;-57
2022/08/26 05:59:50;;;;;;;14.07;4.08;;;;;;;21.55;56.29;99111.17;1688433;84;21008;-52
2022/08/26 06:02:16;;;;;;;17.07;4.42;;;;;;;21.60;55.75;99114.72;1700434;84;20975;-55
2022/08/26 06:04:42;;;;;;;20.60;3.60;;;;;;;21.65;55.58;99111.90;1700903;83;21508;-57
2022/08/26 06:07:07;;;;;;;12.30;4.15;;;;;;;21.71;55.16;99113.09;1696499;83;21496;-49
2022/08/26 06:09:36;;;;;;;16.23;4.00;;;;;;;21.75;54.99;99106.41;1691287;84;21567;-52
2022/08/26 06:12:02;;;;;;;21.95;3.90;;;;;;;21.81;54.88;99109.80;1691050;84;21492;-49
2022/08/26 06:14:29;;;;;;;16.90;4.13;;;;;;;21.87;54.43;99104.30;1691330;84;21047;-52
2022/08/26 06:16:55;;;;;;;17.37;4.12;;;;;;;21.93;54.19;99111.66;1691136;84;21493;-44
2022/08/26 06:19:22;;;;;;;21.23;4.97;;;;;;;21.99;54.14;99099.47;1691419;84;20975;-49
2022/08/26 06:21:50;;;;;;;11.80;5.05;;;;;;;22.03;53.92;99106.19;1691336;84;21157;-50
2022/08/26 06:27:04;;;;;;;13.50;4.85;;;;;;;22.11;53.69;99103.52;1690817;85;20979;-53
2022/08/26 06:29:33;;;;;;;17.17;4.72;;;;;;;22.18;53.48;99113.09;1690508;84;21054;-54
2022/08/26 06:32:01;;;;;;;10.43;4.47;;;;;;;22.22;53.52;99103.20;1690612;84;20979;-46
2022/08/26 06:34:28;;;;;;;15.58;4.67;;;;;;;22.27;53.34;99105.95;1690542;85;21566;-48
2022/08/26 06:36:56;;;;;;;10.88;5.25;;;;;;;22.33;53.31;99112.80;1690984;84;21011;-47
2022/08/26 06:39:22;;;;;;;23.40;4.60;;;;;;;22.38;53.22;99111.81;1691114;84;21015;-51
2022/08/26 06:41:48;;;;;;;11.48;4.30;;;;;;;22.43;53.04;99107.31;1691114;84;21460;-53
2022/08/26 06:44:14;;;;;;;24.72;4.50;;;;;;;22.49;52.85;99108.48;1683970;83;21075;-49
2022/08/26 06:46:42;;;;;;;18.37;4.58;;;;;;;22.55;52.45;99105.95;1684151;85;21520;-55
2022/08/26 06:49:08;;;;;;;;;;;;;;;22.61;52.53;99110.67;1686358;85;21003;-51
2022/08/26 06:51:36;;;;;;;22.35;5.08;;;;;;;22.65;52.40;99110.31;1683754;85;20482;-56
2022/08/26 06:54:04;;;;;;;15.78;5.05;;;;;;;22.70;52.12;99102.62;1662076;85;21035;-55
2022/08/26 06:56:38;;;;;;;12.40;4.80;;;;;;;22.76;52.01;99104.64;1683914;85;21012;-53
2022/08/26 06:59:05;;;;;;;14.05;4.33;;;;;;;22.83;52.04;99108.33;1683569;85;21476;-55
2022/08/26 07:01:36;;;;;;;14.30;4.47;;;;;;;22.90;51.92;99102.63;1683545;85;20999;-47
2022/08/26 07:04:05;;;;;;;15.00;4.37;;;;;;;22.96;51.38;99108.65;1682076;85;21035;-47
2022/08/26 07:06:35;;;;;;;9.20;4.08;;;;;;;23.03;51.47;99107.95;1683875;85;21012;-50
2022/08/26 07:09:05;;;;;;;18.65;4.12;;;;;;;23.09;51.13;99103.31;1683487;85;21007;-54
2022/08/26 07:11:35;;;;;;;12.30;4.00;;;;;;;23.15;50.80;99106.64;1683569;85;21520;-48
2022/08/26 07:14:02;;;;;;;10.90;3.90;;;;;;;23.21;50.50;99104.61;1683646;85;21035;-56
2022/08/26 07:16:28;;;;;;;21.35;4.35;;;;;;;23.26;50.41;99108.95;1683959;85;21043;-56
2022/08/26 07:18:54;;;;;;;19.82;4.22;;;;;;;23.33;50.24;99113.15;1683725;85;21007;-48
2022/08/26 07:21:22;;;;;;;12.82;3.90;;;;;;;23.38;50.16;99109.45;1662334;85;21006;-51
2022/08/26 07:23:48;;;;;;;15.30;3.55;;;;;;;23.43;49.76;99104.41;1683904;85;21527;-44
2022/08/26 07:26:19;;;;;;;24.80;3.37;;;;;;;23.54;49.20;99108.57;1683918;85;20995;-48
2022/08/26 07:28:49;;;;;;;15.28;3.33;;;;;;;23.62;49.64;99105.84;1683713;85;21494;-55
2022/08/26 07:31:16;;;;;;;15.25;3.83;;;;;;;23.67;49.07;99108.02;1683761;85;21514;-51
2022/08/26 07:33:43;;;;;;;14.95;3.30;;;;;;;23.72;49.19;99102.46;1683862;85;20980;-43
2022/08/26 07:36:12;;;;;;;25.02;3.67;;;;;;;23.80;48.89;99106.16;1683833;85;21059;-55
2022/08/26 07:38:39;;;;;;;16.20;3.42;;;;;;;23.86;48.57;99099.55;1683892;85;21012;-49
2022/08/26 07:41:07;;;;;;;17.98;3.30;;;;;;;23.93;48.70;99102.39;1684193;85;21143;-54
2022/08/26 07:43:35;;;;;;;16.05;3.20;;;;;;;24.01;48.43;99098.81;1688001;84;21070;-46
2022/08/26 07:46:03;;;;;;;15.35;3.25;;;;;;;24.11;48.07;99100.78;1691431;84;21489;-47
2022/08/26 07:48:30;;;;;;;19.80;4.30;;;;;;;24.20;48.08;99101.06;1691676;84;21003;-48
2022/08/26 07:50:56;;;;;;;18.30;3.58;;;;;;;24.29;47.46;99101.86;1691607;84;21011;-49
2022/08/26 07:53:22;;;;;;;11.90;2.92;;;;;;;24.36;47.40;99098.78;1691738;85;21171;-51
2022/08/26 07:55:48;;;;;;;11.25;3.33;;;;;;;24.44;47.81;99101.41;1691334;85;21487;-52
2022/08/26 07:58:15;;;;;;;15.03;4.40;;;;;;;24.52;46.68;99097.36;1691487;84;20967;-49
2022/08/26 08:00:41;;;;;;;13.93;3.22;;;;;;;24.61;47.27;99100.80;1691457;85;20998;-48
2022/08/26 08:03:08;;;;;;;8.35;4.05;;;;;;;24.67;47.47;99095.23;1691442;84;20976;-49
2022/08/26 08:05:35;;;;;;;8.60;3.12;;;;;;;24.73;47.28;99094.50;1691881;84;20992;-54
2022/08/26 08:08:05;;;;;;;9.78;3.30;;;;;;;24.82;47.82;99101.48;1691568;84;21509;-56
2022/08/26 08:10:33;;;;;;;14.75;3.90;;;;;;;24.91;47.15;99099.55;1691282;85;21468;-53
2022/08/26 08:12:59;;;;;;;13.55;3.15;;;;;;;24.98;47.14;99102.36;1691400;84;21039;-48
2022/08/26 08:15:29;;;;;;;18.73;3.50;;;;;;;25.05;46.67;99099.23;1691484;85;20992;-45
2022/08/26 08:17:56;;;;;;;9.05;2.85;;;;;;;25.12;46.88;99102.87;1691573;84;21029;-56
2022/08/26 08:20:23;;;;;;;9.83;3.10;;;;;;;25.19;46.59;99101.12;1691655;85;21513;-44
2022/08/26 08:22:51;;;;;;;14.53;2.70;;;;;;;25.26;45.79;99107.47;1691344;84;21027;-52
2022/08/26 08:25:17;;;;;;;11.33;3.35;;;;;;;25.36;45.29;99107.70;1691311;85;21480;-50
2022/08/26 08:27:49;;;;;;;15.28;3.08;;;;;;;25.44;45.26;99108.97;1691227;85;21410;-55
2022/08/26 08:30:20;;;;;;;12.45;3.25;;;;;;;25.53;45.01;99110.55;1691330;84;21018;-55
2022/08/26 08:32:46;;;;;;;14.58;3.30;;;;;;;25.60;44.80;99095.84;1691305;85;21003;-51
2022/08/26 08:35:16;;;;;;;10.48;3.15;;;;;;;25.67;44.59;99101.63;1691749;84;21464;-50
2022/08/26 08:37:43;;;;;;;19.75;3.45;;;;;;;25.77;44.44;99107.24;1691349;85;21043;-49
2022/08/26 08:40:11;;;;;;;;;;;;;;;25.87;44.62;99099.72;1693995;84;20999;-49
2022/08/26 08:42:54;;;;;;;9.10;2.90;;;;;;;25.93;45.31;99103.02;1691170;84;20213;-48
2022/08/26 08:45:34;;;;;;;21.17;3.25;;;;;;;26.00;44.58;99098.55;1699359;83;21019;-47
2022/08/26 08:48:15;;;;;;;13.30;3.02;;;;;;;26.11;44.32;99101.27;1696630;83;20979;-49
2022/08/26 08:50:49;;;;;;;12.47;2.85;;;;;;;26.22;44.09;99098.59;1696936;84;21653;-54
2022/08/26 08:53:21;;;;;;;8.43;3.08;;;;;;;26.32;42.74;99099.09;1695857;84;21717;-51
2022/08/26 08:55:55;;;;;;;10.10;2.75;;;;;;;26.46;42.19;99097.38;1699029;83;21579;-51
2022/08/26 08:58:36;;;;;;;10.10;3.20;;;;;;;26.61;41.36;99100.03;1697309;83;21171;-54
2022/08/26 09:01:07;;;;;;;10.88;3.12;;;;;;;26.78;41.95;99102.80;1697509;84;21015;-45
2022/08/26 09:03:53;;;;;;;11.88;3.10;;;;;;;26.94;41.32;99099.48;1698336;83;20975;-58
2022/08/26 09:06:19;;;;;;;9.48;2.85;;;;;;;27.14;41.28;99100.98;1698694;83;21007;-55
2022/08/26 09:08:48;;;;;;;9.58;3.02;;;;;;;27.35;41.04;99097.43;1698371;84;20995;-48
2022/08/26 09:11:15;;;;;;;15.50;3.10;;;;;;;27.54;40.83;99091.31;1699653;83;21002;-57
2022/08/26 09:13:49;;;;;;;13.62;2.98;;;;;;;27.75;40.55;99094.94;1697189;83;21054;-48
2022/08/26 09:16:26;;;;;;;9.25;2.58;;;;;;;28.01;39.55;99093.41;1698773;83;20975;-53
2022/08/26 09:19:06;;;;;;;10.15;3.40;;;;;;;28.33;40.41;99100.77;1698879;83;20990;-54
2022/08/26 09:21:33;;;;;;;12.82;2.90;;;;;;;28.75;39.97;99095.77;1699398;83;21062;-51
2022/08/26 09:23:59;;;;;;;10.40;2.92;;;;;;;29.20;39.57;99096.81;1699685;83;21507;-49
2022/08/26 09:26:31;;;;;;;16.05;3.22;;;;;;;29.78;39.60;99093.36;1698064;84;20987;-52
2022/08/26 09:29:04;;;;;;;9.20;3.00;;;;;;;30.45;39.05;99093.02;1697663;83;21488;-50
2022/08/26 09:31:40;;;;;;;10.95;2.98;;;;;;;31.12;37.61;99102.02;1698144;83;21003;-46
2022/08/26 09:34:20;;;;;;;11.75;3.33;;;;;;;31.78;35.87;99096.95;1698346;83;21011;-57
2022/08/26 09:36:55;;;;;;;14.47;2.87;;;;;;;32.37;34.42;99099.98;1698132;83;21003;-48
2022/08/26 09:39:39;;;;;;;6.30;2.70;;;;;;;33.30;32.07;99087.58;1698140;83;21007;-49
2022/08/26 09:42:12;;;;;;;10.70;2.70;;;;;;;33.30;32.07;99087.58;1699240;83;21446;-56
2022/08/26 09:45:02;;;;;;;9.58;2.92;;;;;;;33.83;31.71;99092.00;1708273;83;21088;-43
2022/08/26 09:47:48;;;;;;;19.32;3.45;;;;;;;34.36;31.53;99081.02;1710856;83;20978;-43
2022/08/26 09:50:27;;;;;;;10.72;3.02;;;;;;;34.77;30.61;99078.48;1711152;83;21029;-53
2022/08/26 09:53:13;;;;;;;9.18;2.90;;;;;;;35.20;30.43;99078.05;1710917;83;21005;-50
2022/08/26 09:55:44;;;;;;;7.33;2.42;;;;;;;35.56;29.04;99080.17;1710944;83;20996;-44
2022/08/26 09:58:37;;;;;;;6.28;2.60;;;;;;;35.83;28.46;99076.72;1710962;83;21037;-45
2022/08/26 10:01:07;;;;;;;11.30;2.83;;;;;;;36.11;27.32;99076.19;1711640;83;21482;-50
2022/08/26 10:03:37;;;;;;;7.65;2.45;;;;;;;36.47;27.24;99085.61;1711753;83;21376;-43
2022/08/26 10:06:25;;;;;;;7.75;2.87;;;;;;;36.80;25.97;99076.90;1710865;83;21056;-47
2022/08/26 10:08:56;;;;;;;11.57;2.75;;;;;;;36.95;26.18;99078.92;1710757;83;20959;-45
2022/08/26 10:11:49;;;;;;;5.00;2.60;;;;;;;37.18;24.67;99075.52;1714849;83;20975;-51
2022/08/26 10:14:23;;;;;;;6.25;2.70;;;;;;;37.41;24.99;99077.02;1716127;82;20990;-47
2022/08/26 10:17:23;;;;;;;5.80;2.60;;;;;;;37.80;24.89;99082.99;1715977;83;21499;-46
2022/08/26 10:20:01;;;;;;;10.43;2.92;;;;;;;37.94;24.15;99079.17;1715865;82;20980;-49
2022/08/26 10:23:04;;;;;;;4.78;2.72;;;;;;;38.05;23.78;99073.16;1715725;83;21047;-46
2022/08/26 10:25:58;;;;;;;12.60;2.98;;;;;;;38.32;23.94;99081.77;1716022;83;20972;-54
2022/08/26 10:28:49;;;;;;;10.45;2.50;;;;;;;38.55;23.29;99073.52;1716118;83;20987;-46
2022/08/26 10:31:27;;;;;;;7.42;3.17;;;;;;;38.82;23.26;99064.20;1715811;83;20987;-51
2022/08/26 10:33:54;;;;;;;7.72;3.10;;;;;;;39.05;22.55;99065.58;1716332;83;21435;-45
2022/08/26 10:39:15;;;;;;;8.80;2.87;;;;;;;39.51;22.50;99066.84;1716179;83;20983;-48
2022/08/26 10:41:45;;;;;;;7.30;2.75;;;;;;;39.68;22.42;99063.20;1681453;85;20968;-52
2022/08/26 10:44:14;;;;;;;7.58;2.90;;;;;;;39.92;22.09;99060.62;1687932;84;21000;-57
2022/08/26 10:46:47;;;;;;;6.20;2.55;;;;;;;40.07;21.36;99066.58;1717158;83;20980;-48
2022/08/26 10:49:16;;;;;;;8.38;2.70;;;;;;;40.39;21.34;99061.16;1718376;83;20977;-49
2022/08/26 10:51:57;;;;;;;7.50;2.30;;;;;;;40.74;21.17;99058.39;1718692;83;21536;-49
2022/08/26 10:54:39;;;;;;;5.28;2.17;;;;;;;40.82;20.86;99059.97;1718287;83;21514;-46
2022/08/26 10:57:16;;;;;;;8.13;2.72;;;;;;;40.93;20.78;99056.56;1718609;83;21485;-45
2022/08/26 10:59:56;;;;;;;10.28;2.33;;;;;;;40.89;21.30;99059.64;1718644;83;21005;-51
2022/08/26 11:02:44;;;;;;;5.20;2.40;;;;;;;40.84;19.06;99050.03;1718063;83;21083;-56
2022/08/26 11:05:21;;;;;;;5.35;2.10;;;;;;;41.24;19.18;99047.98;1718684;83;20997;-49
2022/08/26 11:07:55;;;;;;;5.70;2.42;;;;;;;41.18;18.79;99038.11;1718698;83;21056;-54
2022/08/26 11:10:23;;;;;;;9.40;2.60;;;;;;;41.43;18.83;99040.59;1717929;83;20965;-42
2022/08/26 11:12:56;;;;;;;5.60;2.27;;;;;;;41.56;19.00;99040.42;1715399;83;21080;-48
2022/08/26 11:15:31;;;;;;;11.85;2.65;;;;;;;41.60;18.23;99036.52;1718717;82;21052;-50
2022/08/26 11:18:10;;;;;;;16.13;2.60;;;;;;;41.85;18.29;99029.85;1718937;83;21020;-47
2022/08/26 11:20:44;;;;;;;6.20;2.33;;;;;;;41.85;18.14;99035.38;1718627;83;21700;-52
2022/08/26 11:23:33;;;;;;;7.72;2.62;;;;;;;41.99;18.29;99034.89;1717936;82;21239;-44
2022/08/26 11:26:13;;;;;;;9.68;2.47;;;;;;;42.36;17.85;99029.08;1717984;83;21033;-53
2022/08/26 11:28:49;;;;;;;7.50;2.45;;;;;;;42.38;17.06;99030.16;1718810;83;21016;-53
2022/08/26 11:31:29;;;;;;;5.33;2.52;;;;;;;42.45;17.13;99028.41;1718712;82;20996;-43
2022/08/26 11:34:00;;;;;;;4.67;2.30;;;;;;;42.75;16.95;99026.52;1717794;83;21049;-46
2022/08/26 11:36:46;;;;;;;8.95;2.35;;;;;;;42.89;17.25;99018.79;1717352;83;21549;-51
2022/08/26 11:39:33;;;;;;;7.20;2.60;;;;;;;43.07;17.35;99013.75;1718629;83;21056;-53
2022/08/26 11:42:04;;;;;;;4.65;2.02;;;;;;;43.21;16.09;99015.69;1718216;83;21099;-53
2022/08/26 11:44:42;;;;;;;2.80;2.15;;;;;;;43.18;14.96;99021.86;1669412;83;21063;-55
2022/08/26 11:47:12;;;;;;;11.35;3.10;;;;;;;43.28;14.77;99016.09;1683766;85;21018;-54
2022/08/26 11:49:38;;;;;;;8.93;2.60;;;;;;;43.47;15.64;99008.53;1683829;85;20996;-51
2022/08/26 11:52:20;;;;;;;13.95;2.67;;;;;;;43.71;15.40;99013.83;1689062;84;21007;-46
2022/08/26 11:55:10;;;;;;;7.30;2.72;;;;;;;43.76;15.62;99014.30;1685962;85;21008;-41